^^
Datos históricos de la estación: Murcia-Puente Tocinos
Diario Informe para Mayo 9, 2019 Unidades:  Ingés    Métrico   Ambas
Diario Semanal Mensual Anual
  Máxima: Mínima: Promedio:
Temperatura: 104.5 °F 75.4 °F 90 °F
Punto de rocio: 72 °F 49.3 °F 57.2 °F
Humedad: 65% 17% 36%
Velocidad viento: 10.2mph 0mph 4.2mph
Racha viento: 17.3mph - -
Viento- - Sur
Presión: 29.9 in 29.8 in -
Precipitación: 0 in    
 
 
Tabla de datos para Mayo 9, 2019
Hora Temperatura Punto de rocio Presión Viento Velocidad viento Racha viento Humedad Intensidad lluvia(por hora) Nubes
00:04 83.3 °F 63.9 °F 29.9 in NO 1.4 mph 4 mph 52% 0 in
00:09 83.3 °F 63.3 °F 29.9 in NO 1.2 mph 4.6 mph 51% 0 in
00:14 83.5 °F 63.5 °F 29.9 in Calm   5 mph 51.1% 0 in
00:19 83.5 °F 63.5 °F 29.9 in NNE 0.2 mph 3.5 mph 51% 0 in
00:24 83.5 °F 63.3 °F 29.9 in NNE 1.4 mph 3.6 mph 51% 0 in
00:29 83.3 °F 63.7 °F 29.9 in NE 1.5 mph 4.6 mph 51.6% 0 in
00:34 83.1 °F 63.9 °F 29.9 in NE 2 mph 5 mph 52.4% 0 in
00:39 82.9 °F 64 °F 29.9 in NE 1.9 mph 3 mph 53% 0 in
00:44 82.8 °F 64 °F 29.9 in NE 1.4 mph 3.1 mph 53.2% 0 in
00:49 82.8 °F 64.4 °F 29.9 in NNO 1.4 mph 3.6 mph 54% 0 in
00:54 82.6 °F 64.4 °F 29.9 in NO 1.4 mph 4 mph 54.3% 0 in
00:59 82.4 °F 64.8 °F 29.9 in NO 1.6 mph 4 mph 55.1% 0 in
01:04 82.2 °F 64.9 °F 29.9 in NO 2.4 mph 4.6 mph 56% 0 in
01:09 82 °F 65.5 °F 29.9 in NO 2.3 mph 5 mph 57% 0 in
01:14 82 °F 65.3 °F 29.9 in NO 1.8 mph 2.3 mph 57% 0 in
01:19 81.9 °F 65.3 °F 29.9 in NO 1.6 mph 2 mph 57.4% 0 in
01:24 81.9 °F 65.5 °F 29.9 in Calm     57.9% 0 in
01:29 81.9 °F 65.3 °F 29.9 in Calm   2.4 mph 57.3% 0 in
01:34 81.9 °F 65.1 °F 29.9 in Calm   2.3 mph 57% 0 in
01:39 81.7 °F 65.3 °F 29.9 in Calm   2.9 mph 57.7% 0 in
01:44 81.7 °F 65.5 °F 29.9 in Calm   3 mph 58% 0 in
01:49 81.7 °F 65.7 °F 29.9 in Calm   2.3 mph 58.5% 0 in
01:54 81.7 °F 65.7 °F 29.9 in Calm   5.8 mph 58.3% 0 in
01:59 81.7 °F 65.3 °F 29.9 in SSE 0.5 mph 6 mph 57.5% 0 in
02:04 81.7 °F 64.6 °F 29.9 in Sur 2.9 mph 5 mph 56.3% 0 in
02:09 81.7 °F 64.2 °F 29.9 in SSE 2.7 mph 4.6 mph 55.6% 0 in
02:14 81.7 °F 63.9 °F 29.9 in Sur 2 mph 5 mph 54.9% 0 in
02:19 81.7 °F 62.4 °F 29.9 in Sur 2.2 mph 5 mph 52.1% 0 in
02:24 81.7 °F 60.1 °F 29.9 in SSO 3.1 mph 5 mph 48.2% 0 in
02:29 81.7 °F 59.2 °F 29.9 in Sur 3 mph 5 mph 46.3% 0 in
02:34 81.9 °F 60.4 °F 29.9 in SSE 2.9 mph 5 mph 48.3% 0 in
02:39 82 °F 62.1 °F 29.9 in SSE 2.7 mph 5 mph 51% 0 in
02:44 81.9 °F 60.6 °F 29.9 in SSE 2 mph 4.6 mph 48.5% 0 in
02:49 81.7 °F 58.3 °F 29.9 in Sur 2.1 mph 5 mph 45.1% 0 in
02:54 81.5 °F 58.1 °F 29.9 in Sur 2.9 mph 5 mph 45% 0 in
02:59 81.3 °F 58.1 °F 29.9 in Sur 2.7 mph 3.6 mph 45.1% 0 in
03:04 81.3 °F 60.1 °F 29.9 in Sur 1.8 mph 4 mph 48.6% 0 in
03:09 81.1 °F 59.4 °F 29.9 in SSE 1.9 mph 5.9 mph 47.8% 0 in
03:14 80.8 °F 58.8 °F 29.9 in SSE 2.9 mph 6 mph 47.4% 0 in
03:19 80.4 °F 58.1 °F 29.9 in Sur 2.9 mph 5.9 mph 46.7% 0 in
03:24 80.2 °F 57.4 °F 29.9 in Sur 3.1 mph 6 mph 45.9% 0 in
03:29 80.1 °F 56.8 °F 29.9 in Sur 3.2 mph 7.4 mph 45.1% 0 in
03:34 79.9 °F 56.7 °F 29.9 in Sur 4 mph 7 mph 45% 0 in
03:39 79.9 °F 56.1 °F 29.9 in SSO 4 mph 6 mph 44.3% 0 in
03:44 79.7 °F 55.9 °F 29.9 in SSO 3.6 mph 6 mph 44% 0 in
03:49 79.9 °F 55.9 °F 29.9 in SO 3.5 mph 5 mph 44% 0 in
03:54 79.9 °F 55.6 °F 29.9 in SO 2.9 mph 5.2 mph 43.2% 0 in
03:59 79.9 °F 55.4 °F 29.9 in SO 2.9 mph 5 mph 43% 0 in
04:04 79.9 °F 55.4 °F 29.9 in SO 3.1 mph 5 mph 43% 0 in
04:09 79.9 °F 55 °F 29.9 in SSO 3.1 mph 5.2 mph 42.6% 0 in
04:14 79.9 °F 55 °F 29.9 in SSO 3.1 mph 5.2 mph 42.6% 0 in
04:19 79.7 °F 54.7 °F 29.9 in SO 3.1 mph 5.9 mph 42.1% 0 in
04:24 79.7 °F 54.7 °F 29.9 in SO 3.1 mph 6 mph 42% 0 in
04:29 79.7 °F 54.7 °F 29.9 in SSO 3 mph 5.8 mph 42% 0 in
04:34 79.7 °F 54.7 °F 29.9 in SO 2.9 mph 6 mph 42% 0 in
04:39 79.5 °F 54.5 °F 29.9 in SO 2.9 mph 5.4 mph 42% 0 in
04:44 79.5 °F 54.3 °F 29.9 in SO 3.1 mph 6 mph 42% 0 in
04:49 79.3 °F 54.3 °F 29.9 in SSO 3.2 mph 6.2 mph 42% 0 in
04:54 79.2 °F 54.7 °F 29.9 in Sur 3.6 mph 6 mph 42.9% 0 in
04:59 78.8 °F 54.5 °F 29.9 in Sur 3.6 mph 6 mph 43% 0 in
05:04 78.6 °F 54.1 °F 29.9 in SO 3.6 mph 6 mph 43% 0 in
05:09 78.4 °F 54.3 °F 29.9 in SO 3.5 mph 6 mph 43.3% 0 in
05:14 78.4 °F 54.7 °F 29.9 in SO 3.1 mph 5.9 mph 44% 0 in
05:19 78.3 °F 54.7 °F 29.9 in OSO 3.2 mph 6.9 mph 44% 0 in
05:24 78.3 °F 54.5 °F 29.9 in OSO 3.6 mph 9.7 mph 44% 0 in
05:29 78.1 °F 54.3 °F 29.9 in SO 3.7 mph 10 mph 44% 0 in
05:34 77.7 °F 54 °F 29.9 in SSO 4.3 mph 9 mph 43.9% 0 in
05:39 77.7 °F 53.8 °F 29.9 in SSO 4.3 mph 8 mph 43.5% 0 in
05:44 77.5 °F 53.4 °F 29.9 in Sur 4.7 mph 8.1 mph 43% 0 in
05:49 77.4 °F 53.1 °F 29.9 in Sur 4.8 mph 9.2 mph 43% 0 in
05:54 77 °F 52.9 °F 29.9 in SSO 5.2 mph 9.2 mph 43% 0 in
05:59 77 °F 52.9 °F 29.9 in SSO 5.2 mph 9 mph 43% 0 in
06:04 77 °F 53.2 °F 29.9 in SSO 5.2 mph 8.7 mph 43.9% 0 in
06:09 77 °F 53.4 °F 29.9 in SSO 5.2 mph 9.2 mph 44% 0 in
06:14 77 °F 53.4 °F 29.9 in SSO 5.4 mph 9 mph 44% 0 in
06:19 77 °F 53.4 °F 29.9 in Sur 5.3 mph 8 mph 44.1% 0 in
06:24 76.8 °F 54 °F 29.9 in SSO 4.7 mph 8.1 mph 45% 0 in
06:29 76.8 °F 54.5 °F 29.9 in Sur 4.7 mph 8 mph 46% 0 in
06:34 76.8 °F 54.5 °F 29.9 in SO 4.7 mph 7.4 mph 45.9% 0 in
06:39 77.2 °F 54.1 °F 29.9 in SO 4.6 mph 7 mph 45% 0 in
06:44 77.4 °F 54.3 °F 29.9 in SO 4 mph 8.1 mph 45% 0 in
06:49 77.4 °F 54.3 °F 29.9 in ONO 4 mph 8 mph 45% 0 in
06:54 77.4 °F 54.3 °F 29.9 in OSO 3.6 mph 5 mph 45% 0 in
06:59 77 °F 54 °F 29.9 in OSO 3.5 mph 5.2 mph 45% 0 in
07:04 76.8 °F 54 °F 29.9 in Oeste 3.1 mph 5.4 mph 45% 0 in
07:09 76.6 °F 53.8 °F 29.9 in OSO 3.1 mph 5.8 mph 45% 0 in
07:14 76.6 °F 53.6 °F 29.9 in OSO 3.1 mph 6 mph 45% 0 in
07:19 76.5 °F 53.4 °F 29.9 in OSO 3.1 mph 5 mph 45% 0 in
07:24 76.5 °F 53.4 °F 29.9 in SO 3.1 mph 5.8 mph 45% 0 in
07:29 76.6 °F 53.6 °F 29.9 in ONO 3 mph 6 mph 45% 0 in
07:34 76.6 °F 54 °F 29.9 in Oeste 2.9 mph 4 mph 45.4% 0 in
07:39 76.6 °F 54.3 °F 29.9 in SSO 2.8 mph 4.6 mph 46.2% 0 in
07:44 76.5 °F 55.4 °F 29.9 in ESE 2.4 mph 5 mph 48.2% 0 in
07:49 76.1 °F 55.9 °F 29.9 in SE 2.4 mph 5 mph 49.6% 0 in
07:54 75.7 °F 55.8 °F 29.9 in SSE 2.4 mph 5.8 mph 50% 0 in
07:59 75.4 °F 55.4 °F 29.9 in Sur 2.5 mph 6 mph 49.9% 0 in
08:04 75.4 °F 55.4 °F 29.9 in SSE 2.9 mph 5 mph 49.9% 0 in
08:09 75.6 °F 55 °F 29.9 in Sur 2.8 mph 5 mph 49% 0 in
08:14 75.7 °F 55.2 °F 29.9 in Sur 2.4 mph 5 mph 49% 0 in
08:19 76.1 °F 55 °F 29.9 in SSO 2.4 mph 4.7 mph 48.1% 0 in
08:24 76.6 °F 55.2 °F 29.9 in SSO 2.4 mph 5.4 mph 47.5% 0 in
08:29 77 °F 54.9 °F 29.9 in SO 2.5 mph 6 mph 46.4% 0 in
08:34 77.5 °F 55 °F 29.9 in SO 3.1 mph 6 mph 45.9% 0 in
08:39 77.9 °F 54.7 °F 29.9 in OSO 3 mph 5 mph 44.9% 0 in
08:44 78.4 °F 54.7 °F 29.9 in SSO 2.9 mph 5.8 mph 44.1% 0 in
08:49 78.8 °F 54.9 °F 29.9 in SO 3 mph 6 mph 43.8% 0 in
08:54 79.2 °F 54.9 °F 29.9 in SO 3.6 mph 5.2 mph 43.3% 0 in
08:59 79.3 °F 54.9 °F 29.9 in OSO 3.5 mph 5.2 mph 43% 0 in
09:04 79.7 °F 54.9 °F 29.9 in SO 2.9 mph 5 mph 42.5% 0 in
09:09 80.2 °F 55 °F 29.9 in SO 2.8 mph 5.2 mph 42% 0 in
09:14 80.6 °F 55.2 °F 29.9 in Sur 2.4 mph 5 mph 41.8% 0 in
09:19 81 °F 55 °F 29.9 in SSO 2.4 mph 5 mph 41% 0 in
09:24 81.7 °F 55.6 °F 29.9 in SSO 2.4 mph 5 mph 40.9% 0 in
09:29 82.2 °F 55.4 °F 29.9 in SSO 2.4 mph 5.4 mph 39.9% 0 in
09:34 82.6 °F 55.2 °F 29.9 in SSO 2.4 mph 6.9 mph 39.1% 0 in
09:39 82.9 °F 54.7 °F 29.9 in OSO 2.5 mph 7 mph 38.1% 0 in
09:44 83.3 °F 54 °F 29.9 in OSO 3.1 mph 7 mph 36.4% 0 in
09:49 83.8 °F 53.2 °F 29.9 in SO 3.3 mph 8.5 mph 35.1% 0 in
09:54 84 °F 52.9 °F 29.9 in SO 4.3 mph 9 mph 34.2% 0 in
09:59 84.4 °F 52.9 °F 29.9 in SO 4.5 mph 9.7 mph 34% 0 in
10:04 84.7 °F 53.1 °F 29.9 in SO 5.2 mph 10 mph 33.8% 0 in
10:09 85.1 °F 52.7 °F 29.9 in SO 5.2 mph 9 mph 33% 0 in
10:14 85.5 °F 53.1 °F 29.9 in SSO 5.2 mph 8 mph 33% 0 in
10:19 85.6 °F 53.2 °F 29.9 in SSO 5.2 mph 9.2 mph 32.8% 0 in
10:24 86 °F 53.2 °F 29.9 in SSO 5.2 mph 10.7 mph 32.6% 0 in
10:29 86.4 °F 53.4 °F 29.9 in Sur 5.3 mph 11 mph 32.4% 0 in
10:34 86.9 °F 53.2 °F 29.9 in SSO 6.2 mph 11 mph 31.8% 0 in
10:39 87.6 °F 52.9 °F 29.9 in SSO 6 mph 9 mph 30.7% 0 in
10:44 88.3 °F 52.5 °F 29.9 in SSO 5.2 mph 9.7 mph 29.5% 0 in
10:49 89.1 °F 52.3 °F 29.9 in Sur 5.3 mph 10 mph 28.8% 0 in
10:54 89.2 °F 52.3 °F 29.9 in Sur 5.9 mph 9.7 mph 28.5% 0 in
10:59 90 °F 52.5 °F 29.9 in SO 5.7 mph 10 mph 28.1% 0 in
11:04 90.3 °F 52 °F 29.9 in SO 4.7 mph 9.2 mph 27.2% 0 in
11:09 90.7 °F 52.2 °F 29.9 in SSO 4.8 mph 11.5 mph 27% 0 in
11:14 90.9 °F 52.3 °F 29.9 in SO 5.4 mph 12 mph 27% 0 in
11:19 91 °F 52.3 °F 29.9 in SO 5.5 mph 9.7 mph 27% 0 in
11:24 91.2 °F 52.5 °F 29.9 in SSO 5.9 mph 10 mph 27% 0 in
11:29 91.8 °F 52.5 °F 29.9 in OSO 5.7 mph 8.1 mph 26.5% 0 in
11:34 92.1 °F 52.5 °F 29.9 in Sur 4 mph 8 mph 26.1% 0 in
11:39 92.7 °F 52.9 °F 29.9 in OSO 4 mph 7 mph 26% 0 in
11:44 93 °F 53.1 °F 29.9 in SO 4.3 mph 8.7 mph 26% 0 in
11:49 93.4 °F 53.1 °F 29.9 in OSO 4.3 mph 9 mph 25.7% 0 in
11:54 93.6 °F 53.1 °F 29.9 in SO 4 mph 8.7 mph 25.6% 0 in
11:59 94.1 °F 53.2 °F 29.9 in SO 4 mph 9.2 mph 25.3% 0 in
12:04 94.6 °F 53.2 °F 29.9 in SO 4.3 mph 9.2 mph 24.9% 0 in
12:09 95 °F 52.9 °F 29.9 in SSO 4.3 mph 9.2 mph 24.3% 0 in
12:14 95.4 °F 52.9 °F 29.9 in SO 4.3 mph 9 mph 24% 0 in
12:19 95.7 °F 53.1 °F 29.9 in Oeste 4.3 mph 9.7 mph 23.8% 0 in
12:24 96.3 °F 52.9 °F 29.9 in SSO 4.3 mph 10 mph 23.4% 0 in
12:29 96.3 °F 52.5 °F 29.9 in SSO 4.5 mph 9.2 mph 23% 0 in
12:34 96.3 °F 52.3 °F 29.9 in Sur 5.4 mph 9 mph 23% 0 in
12:39 96.6 °F 52.3 °F 29.9 in SO 5.3 mph 9.2 mph 22.7% 0 in
12:44 97.2 °F 52.5 °F 29.9 in SO 4.7 mph 9.2 mph 22.5% 0 in
12:49 97.3 °F 52.2 °F 29.9 in Sur 4.8 mph 10 mph 22% 0 in
12:54 97.3 °F 52.2 °F 29.9 in SSE 5.4 mph 10 mph 22% 0 in
12:59 97.9 °F 51.8 °F 29.9 in SSO 5.2 mph 8.5 mph 21.4% 0 in
13:04 98.1 °F 52 °F 29.9 in SSO 4.3 mph 9 mph 21.5% 0 in
13:09 98.2 °F 51.6 °F 29.9 in SO 4.3 mph 9.2 mph 21% 0 in
13:14 98.6 °F 51.8 °F 29.9 in OSO 4.7 mph 9 mph 21% 0 in
13:19 99 °F 52 °F 29.9 in NO 4.3 mph 5 mph 20.8% 0 in
13:24 99.5 °F 50.9 °F 29.9 in NO 2.4 mph 5.9 mph 19.7% 0 in
13:29 99.9 °F 50.4 °F 29.9 in North 2.5 mph 6.2 mph 19% 0 in
13:34 100.2 °F 50.2 °F 29.9 in North 2.9 mph 8.1 mph 18.8% 0 in
13:39 100.2 °F 49.5 °F 29.9 in NE 3 mph 8 mph 18.2% 0 in
13:44 100 °F 49.3 °F 29.9 in NE 4 mph 8.1 mph 18.2% 0 in
13:49 100.6 °F 49.3 °F 29.9 in Este 3.9 mph 8 mph 18% 0 in
13:54 100.8 °F 49.8 °F 29.9 in ENE 3.1 mph 10.4 mph 18.2% 0 in
13:59 100.9 °F 49.8 °F 29.9 in ENE 3.3 mph 10 mph 18% 0 in
14:04 101.5 °F 50 °F 29.9 in SE 4 mph 8 mph 17.9% 0 in
14:09 101.7 °F 49.5 °F 29.9 in ESE 4 mph 8.1 mph 17.5% 0 in
14:14 101.8 °F 50.2 °F 29.9 in NE 3.6 mph 8 mph 17.8% 0 in
14:19 102 °F 49.8 °F 29.9 in ENE 3.5 mph 7 mph 17.6% 0 in
14:24 102.4 °F 50 °F 29.8 in North 3.1 mph 7 mph 17.5% 0 in
14:29 102.6 °F 49.5 °F 29.8 in ONO 3.1 mph 7 mph 17% 0 in
14:34 102.7 °F 49.6 °F 29.8 in ONO 3.1 mph 5.9 mph 17% 0 in
14:39 102.9 °F 49.8 °F 29.8 in NNE 3 mph 6 mph 17% 0 in
14:44 103.3 °F 50 °F 29.8 in Este 2.9 mph 8.1 mph 17% 0 in
14:49 103.5 °F 50.2 °F 29.8 in NE 2.9 mph 8 mph 17% 0 in
14:54 103.6 °F 50.4 °F 29.8 in ENE 2.9 mph 8.1 mph 17% 0 in
14:59 103.6 °F 50.4 °F 29.8 in ESE 2.9 mph 8.1 mph 17% 0 in
15:04 103.8 °F 50.5 °F 29.8 in ENE 3.1 mph 8.7 mph 17% 0 in
15:09 104.2 °F 50.7 °F 29.8 in NNE 3.2 mph 9.7 mph 17% 0 in
15:14 103.8 °F 50.4 °F 29.8 in NNE 4 mph 10 mph 17% 0 in
15:19 104 °F 50.5 °F 29.8 in NNE 4 mph 8.5 mph 17% 0 in
15:24 104.2 °F 52 °F 29.8 in Este 4.3 mph 9.7 mph 17.8% 0 in
15:29 104.4 °F 53.6 °F 29.8 in ESE 4.5 mph 12.7 mph 18.8% 0 in
15:34 104.2 °F 54.1 °F 29.8 in ESE 5.9 mph 13 mph 19.3% 0 in
15:39 104.2 °F 55 °F 29.8 in ESE 6.2 mph 13 mph 20% 0 in
15:44 104 °F 55 °F 29.8 in SSE 7.4 mph 13 mph 20% 0 in
15:49 104.2 °F 55.6 °F 29.8 in ESE 7.3 mph 13 mph 20.3% 0 in
15:54 104.2 °F 56.1 °F 29.8 in ESE 6.9 mph 15.2 mph 20.7% 0 in
15:59 103.6 °F 56.1 °F 29.8 in ESE 7.2 mph 15 mph 21% 0 in
16:04 104 °F 56.3 °F 29.8 in ENE 8.5 mph 14 mph 21% 0 in
16:09 104.2 °F 55.6 °F 29.8 in ESE 8.2 mph 14 mph 20.3% 0 in
16:14 104.4 °F 55.2 °F 29.8 in ESE 6.4 mph 14.7 mph 20% 0 in
16:19 104.4 °F 55.2 °F 29.8 in ESE 6.8 mph 16.1 mph 20% 0 in
16:24 104.4 °F 55.2 °F 29.8 in SE 8.5 mph 16 mph 20% 0 in
16:29 103.8 °F 55 °F 29.8 in ESE 8.3 mph 13 mph 20% 0 in
16:34 104.2 °F 55.2 °F 29.8 in ESE 7.4 mph 12.7 mph 20% 0 in
16:39 104.2 °F 55.2 °F 29.8 in SE 7.3 mph 13 mph 20% 0 in
16:44 104.5 °F 54.5 °F 29.8 in ESE 6.9 mph 13 mph 19.4% 0 in
16:49 104.5 °F 54.1 °F 29.8 in SE 7.1 mph 13.8 mph 19.1% 0 in
16:54 104.4 °F 54.5 °F 29.8 in ESE 8.1 mph 14 mph 19.5% 0 in
16:59 104.2 °F 54 °F 29.8 in SE 8 mph 15 mph 19.2% 0 in
17:04 104.2 °F 53.8 °F 29.8 in SE 7.4 mph 15 mph 19% 0 in
17:09 104.2 °F 54 °F 29.8 in SE 7.3 mph 13.8 mph 19.2% 0 in
17:14 104.4 °F 54 °F 29.8 in SSE 6.9 mph 14 mph 19% 0 in
17:19 104.5 °F 54 °F 29.8 in ESE 7 mph 13 mph 19% 0 in
17:24 104.4 °F 54 °F 29.8 in ESE 7.4 mph 15.2 mph 19% 0 in
17:29 104.2 °F 54.1 °F 29.8 in ESE 7.6 mph 15 mph 19.2% 0 in
17:34 104.4 °F 54 °F 29.8 in ESE 9.2 mph 15 mph 19% 0 in
17:39 104.4 °F 54.7 °F 29.8 in ESE 9.1 mph 15 mph 19.5% 0 in
17:44 104.4 °F 54 °F 29.8 in SE 8.7 mph 14 mph 19% 0 in
17:49 104.4 °F 54.5 °F 29.8 in ESE 8.5 mph 13.8 mph 19.5% 0 in
17:54 104.2 °F 54.1 °F 29.8 in ESE 7.6 mph 14 mph 19.3% 0 in
17:59 103.8 °F 54.3 °F 29.8 in ESE 7.8 mph 13.8 mph 19.5% 0 in
18:04 103.6 °F 53.4 °F 29.8 in ESE 8.7 mph 16.8 mph 19% 0 in
18:09 103.5 °F 54 °F 29.8 in ESE 8.9 mph 17.3 mph 19.5% 0 in
18:14 103.5 °F 54 °F 29.8 in ESE 10.2 mph 17 mph 19.5% 0 in
18:19 103.5 °F 54.7 °F 29.8 in ESE 9.8 mph 13 mph 20% 0 in
18:24 103.8 °F 54.9 °F 29.8 in SE 6.9 mph 11.5 mph 19.9% 0 in
18:29 103.8 °F 54.5 °F 29.8 in ESE 6.9 mph 12 mph 19.7% 0 in
18:34 103.8 °F 54.7 °F 29.8 in SE 6.9 mph 10.7 mph 19.9% 0 in
18:39 104 °F 54.1 °F 29.8 in ESE 6.7 mph 11 mph 19.4% 0 in
18:44 104 °F 56.1 °F 29.8 in ESE 5.4 mph 12.7 mph 20.8% 0 in
18:49 103.5 °F 56.1 °F 29.8 in ESE 5.8 mph 13 mph 21.2% 0 in
18:54 102.9 °F 57 °F 29.8 in ESE 7.6 mph 15 mph 22.2% 0 in
18:59 102.7 °F 57.7 °F 29.8 in ESE 7.8 mph 15 mph 23% 0 in
19:04 102.6 °F 57.7 °F 29.8 in ESE 8.5 mph 12 mph 23% 0 in
19:09 102.7 °F 57.7 °F 29.8 in ESE 8.1 mph 11 mph 23% 0 in
19:14 102.6 °F 58.3 °F 29.8 in ESE 6.4 mph 13.8 mph 23.6% 0 in
19:19 102 °F 58.5 °F 29.8 in ESE 6.6 mph 14 mph 24% 0 in
19:24 101.8 °F 58.3 °F 29.8 in ESE 7.6 mph 13 mph 24% 0 in
19:29 101.8 °F 58.3 °F 29.8 in ESE 7.5 mph 12 mph 24% 0 in
19:34 101.8 °F 58.3 °F 29.8 in ESE 6.4 mph 9 mph 24% 0 in
19:39 101.8 °F 58.3 °F 29.8 in ESE 6.2 mph 8.1 mph 24% 0 in
19:44 101.8 °F 58.3 °F 29.8 in ESE 5.2 mph 10.4 mph 24% 0 in
19:49 101.7 °F 58.1 °F 29.8 in ESE 5.3 mph 10 mph 24% 0 in
19:54 101.5 °F 58.1 °F 29.8 in ESE 5.9 mph 9 mph 24% 0 in
19:59 101.3 °F 58.1 °F 29.8 in ESE 5.6 mph 7 mph 24.3% 0 in
20:04 100.9 °F 58.6 °F 29.8 in ESE 4.3 mph 8.1 mph 25% 0 in
20:09 100.6 °F 58.5 °F 29.8 in ESE 4.5 mph 8.5 mph 25.1% 0 in
20:14 100 °F 59 °F 29.8 in ESE 5.2 mph 9 mph 26% 0 in
20:19 99.5 °F 59.4 °F 29.8 in ESE 5.3 mph 11.5 mph 26.8% 0 in
20:24 99.1 °F 59.2 °F 29.8 in ESE 6.4 mph 12 mph 27% 0 in
20:29 98.8 °F 59.5 °F 29.8 in Este 6.3 mph 9 mph 27.5% 0 in
20:34 98.4 °F 59.7 °F 29.8 in Este 5.4 mph 8 mph 28% 0 in
20:39 98.2 °F 59.5 °F 29.8 in ESE 5.2 mph 7 mph 28% 0 in
20:44 98.2 °F 59.7 °F 29.8 in ESE 4.3 mph 8.1 mph 28.2% 0 in
20:49 98.1 °F 60.3 °F 29.8 in ESE 4.3 mph 8 mph 29% 0 in
20:54 97.7 °F 60.1 °F 29.8 in ESE 4.7 mph 8.1 mph 29% 0 in
20:59 97.3 °F 59.7 °F 29.8 in ESE 4.7 mph 8 mph 29% 0 in
21:04 97 °F 59.9 °F 29.8 in ESE 4.7 mph 8.1 mph 29.5% 0 in
21:09 96.6 °F 60.1 °F 29.8 in NNE 4.7 mph 8 mph 30% 0 in
21:14 96.3 °F 59.9 °F 29.8 in North 4.3 mph 7 mph 30% 0 in
21:19 96.1 °F 59.5 °F 29.8 in North 4.2 mph 9.2 mph 30.1% 0 in
21:24 95.4 °F 59.2 °F 29.8 in NNE 3.6 mph 9 mph 30% 0 in
21:29 94.6 °F 60.1 °F 29.8 in NNE 3.9 mph 10.4 mph 31.8% 0 in
21:34 93.9 °F 63 °F 29.8 in NNE 5.2 mph 15 mph 36.2% 0 in
21:39 92.8 °F 65.1 °F 29.8 in NE 5.6 mph 15 mph 40% 0 in
21:44 92.1 °F 66.4 °F 29.8 in NE 7.6 mph 10.7 mph 43% 0 in
21:49 91.6 °F 67.3 °F 29.8 in NE 7.4 mph 11 mph 45.3% 0 in
21:54 90.9 °F 68 °F 29.8 in NE 6.2 mph 11 mph 47.3% 0 in
21:59 90.5 °F 68.4 °F 29.8 in NE 6 mph 9.2 mph 48.4% 0 in
22:04 90.1 °F 68.4 °F 29.8 in NE 5.2 mph 9 mph 49% 0 in
22:09 90 °F 68.5 °F 29.8 in NE 5 mph 7 mph 49.7% 0 in
22:14 89.6 °F 68.5 °F 29.8 in NNE 4.3 mph 7 mph 50% 0 in
22:19 89.2 °F 68.5 °F 29.8 in NNE 4.3 mph 8.1 mph 50.6% 0 in
22:24 89.1 °F 68.7 °F 29.8 in North 4 mph 8 mph 51.4% 0 in
22:29 88.9 °F 69.4 °F 29.8 in NO 4 mph 8 mph 52.8% 0 in
22:34 88.5 °F 70 °F 29.9 in NO 4 mph 7 mph 54.5% 0 in
22:39 88.2 °F 70 °F 29.9 in NNO 3.9 mph 6 mph 55% 0 in
22:44 88 °F 69.8 °F 29.9 in NNO 3.1 mph 5 mph 55.1% 0 in
22:49 87.8 °F 70 °F 29.9 in NO 3 mph 5.4 mph 55.8% 0 in
22:54 87.6 °F 70.3 °F 29.9 in NNO 2.4 mph 6 mph 56.7% 0 in
22:59 87.4 °F 70.5 °F 29.9 in North 2.5 mph 6 mph 57.6% 0 in
23:04 87.3 °F 70.7 °F 29.9 in NNE 3.1 mph 6 mph 58% 0 in
23:09 87.1 °F 70.9 °F 29.9 in NNO 3 mph 5.8 mph 58.9% 0 in
23:14 86.7 °F 71.2 °F 29.9 in NNO 2.4 mph 6 mph 60.1% 0 in
23:19 86.5 °F 71.4 °F 29.9 in NNO 2.4 mph 5.2 mph 61.1% 0 in
23:24 86.2 °F 71.6 °F 29.9 in North 2 mph 5.9 mph 62% 0 in
23:29 85.6 °F 71.8 °F 29.9 in ENE 2.3 mph 6.9 mph 63.1% 0 in
23:34 85.5 °F 72 °F 29.9 in Oeste 4 mph 7 mph 64% 0 in
23:39 85.5 °F 71.8 °F 29.9 in NE 4 mph 8.5 mph 64% 0 in
23:44 85.3 °F 71.8 °F 29.9 in NNO 3.6 mph 9 mph 64% 0 in
23:49 85.3 °F 71.6 °F 29.9 in North 3.4 mph 5 mph 64% 0 in
23:54 85.1 °F 71.8 °F 29.9 in NNO 2.4 mph 5 mph 64.8% 0 in
23:59 84.9 °F 71.8 °F 29.9 in NNO 2.3 mph 5 mph 65% 0 in
Murcia-Puente Tocinos, España
Compliments of Weather Underground - 3 mb

La estación de MeteoMurcia.com, publica sus datos en los siguientes proyectos:

Weather Underground PWS IMURCIAP2 Meteoclimatic www.awekas.at

W3Counter
Web Analytics